createdAt,value
2019-02-09T00:00:11.817Z,8.65
2019-02-09T00:01:11.809Z,8.76
2019-02-09T00:02:11.787Z,8.83
2019-02-09T00:03:13.202Z,8.83
2019-02-09T00:04:11.765Z,8.84
2019-02-09T00:05:11.755Z,8.84
2019-02-09T00:06:11.744Z,8.78
2019-02-09T00:07:11.732Z,8.90
2019-02-09T00:08:11.727Z,8.91
2019-02-09T00:09:11.760Z,8.87
2019-02-09T00:10:11.715Z,9.01
2019-02-09T00:11:11.703Z,9.02
2019-02-09T00:12:11.683Z,9.04
2019-02-09T00:13:11.680Z,8.91
2019-02-09T00:14:11.660Z,8.96
2019-02-09T00:15:11.673Z,9.13
2019-02-09T00:16:11.662Z,9.21
2019-02-09T00:17:12.062Z,9.24
2019-02-09T00:18:11.617Z,9.18
2019-02-09T00:19:11.608Z,9.23
2019-02-09T00:20:11.593Z,9.23
2019-02-09T00:21:11.883Z,9.23
2019-02-09T00:22:11.582Z,9.21
2019-02-09T00:23:11.561Z,9.28
2019-02-09T00:24:11.843Z,9.27
2019-02-09T00:25:11.541Z,9.30
2019-02-09T00:26:11.532Z,9.31
2019-02-09T00:27:11.543Z,9.34
2019-02-09T00:28:11.505Z,9.24
2019-02-09T00:29:11.495Z,9.20
2019-02-09T00:30:11.487Z,9.20
2019-02-09T00:31:11.750Z,9.21
2019-02-09T00:32:11.464Z,9.23
2019-02-09T00:33:11.486Z,9.28
2019-02-09T00:34:11.462Z,9.20
2019-02-09T00:35:11.430Z,9.25
2019-02-09T00:36:11.419Z,9.25
2019-02-09T00:37:11.410Z,9.32
2019-02-09T00:38:11.704Z,9.39
2019-02-09T00:39:11.450Z,9.38
2019-02-09T00:40:11.383Z,9.35
2019-02-09T00:41:11.373Z,9.32
2019-02-09T00:42:11.380Z,9.32
2019-02-09T00:43:11.359Z,9.35
2019-02-09T00:44:11.383Z,9.31
2019-02-09T00:45:11.670Z,9.30
2019-02-09T00:46:11.312Z,9.34
2019-02-09T00:47:11.299Z,9.32
2019-02-09T00:48:11.289Z,9.39
2019-02-09T00:49:11.283Z,9.35
2019-02-09T00:50:11.302Z,9.39
2019-02-09T00:51:11.306Z,9.34
2019-02-09T00:52:11.589Z,9.43
2019-02-09T00:53:11.235Z,9.40
2019-02-09T00:54:11.229Z,9.42
2019-02-09T00:55:11.238Z,9.35
2019-02-09T00:56:11.201Z,9.34
2019-02-09T00:57:11.231Z,9.38
2019-02-09T00:58:11.178Z,9.35
2019-02-09T00:59:11.461Z,9.39
2019-02-09T01:00:11.182Z,9.31
2019-02-09T01:01:11.163Z,9.31
2019-02-09T01:02:11.145Z,9.30
2019-02-09T01:03:11.153Z,9.31
2019-02-09T01:04:11.115Z,9.23
2019-02-09T01:05:11.125Z,9.16
2019-02-09T01:06:11.370Z,9.15
2019-02-09T01:07:11.082Z,8.97
2019-02-09T01:08:11.070Z,9.06
2019-02-09T01:09:11.088Z,9.04
2019-02-09T01:10:11.052Z,8.91
2019-02-09T01:11:11.041Z,8.93
2019-02-09T01:12:11.027Z,8.90
2019-02-09T01:13:12.334Z,8.84
2019-02-09T01:14:11.007Z,8.83
2019-02-09T01:15:12.784Z,8.75
2019-02-09T01:16:11.205Z,8.81
2019-02-09T01:17:10.997Z,8.79
2019-02-09T01:18:11.004Z,8.84
2019-02-09T01:19:10.982Z,8.75
2019-02-09T01:20:12.108Z,8.68
2019-02-09T01:21:11.054Z,8.71
2019-02-09T01:22:10.923Z,8.75
2019-02-09T01:23:10.910Z,8.69
2019-02-09T01:24:10.899Z,8.65
2019-02-09T01:25:10.916Z,8.53
2019-02-09T01:26:10.887Z,8.65
2019-02-09T01:27:11.305Z,8.63
2019-02-09T01:28:10.880Z,8.60
2019-02-09T01:29:10.851Z,8.58
2019-02-09T01:30:10.835Z,8.55
2019-02-09T01:31:11.157Z,8.58
2019-02-09T01:32:10.812Z,8.51
2019-02-09T01:33:11.097Z,8.51
2019-02-09T01:34:10.788Z,8.45
2019-02-09T01:35:10.797Z,8.50
2019-02-09T01:36:10.771Z,8.53
2019-02-09T01:37:10.762Z,8.33
2019-02-09T01:38:10.757Z,8.40
2019-02-09T01:39:11.805Z,8.39
2019-02-09T01:40:10.738Z,8.40
2019-02-09T01:41:10.740Z,8.37
2019-02-09T01:42:10.710Z,8.28
2019-02-09T01:43:10.691Z,8.36
2019-02-09T01:44:10.692Z,8.37
2019-02-09T01:45:10.710Z,8.35
2019-02-09T01:46:10.658Z,8.35
2019-02-09T01:47:10.648Z,8.29
2019-02-09T01:48:10.644Z,8.35
2019-02-09T01:49:10.627Z,8.29
2019-02-09T01:50:10.659Z,8.33
2019-02-09T01:51:11.257Z,8.29
2019-02-09T01:52:10.605Z,8.20
2019-02-09T01:53:10.603Z,8.18
2019-02-09T01:54:10.574Z,8.21
2019-02-09T01:55:10.583Z,8.22
2019-02-09T01:56:10.565Z,8.22
2019-02-09T01:57:10.599Z,8.17
2019-02-09T01:58:10.819Z,8.21
2019-02-09T01:59:10.551Z,8.18
2019-02-09T02:00:10.907Z,8.28
2019-02-09T02:01:10.499Z,8.15
2019-02-09T02:02:10.488Z,8.21
2019-02-09T02:03:10.514Z,8.17
2019-02-09T02:04:10.479Z,8.14
2019-02-09T02:05:10.762Z,8.10
2019-02-09T02:06:10.468Z,8.18
2019-02-09T02:07:10.442Z,8.04
2019-02-09T02:08:10.442Z,8.04
2019-02-09T02:09:10.547Z,8.02
2019-02-09T02:10:10.405Z,8.00
2019-02-09T02:11:10.395Z,8.07
2019-02-09T02:12:10.771Z,7.96
2019-02-09T02:13:10.392Z,8.00
2019-02-09T02:14:10.413Z,8.08
2019-02-09T02:15:10.417Z,8.10
2019-02-09T02:16:10.353Z,7.97
2019-02-09T02:17:10.333Z,7.96
2019-02-09T02:18:10.331Z,7.93
2019-02-09T02:19:10.584Z,8.00
2019-02-09T02:20:10.303Z,8.04
2019-02-09T02:21:10.328Z,7.84
2019-02-09T02:22:10.330Z,7.85
2019-02-09T02:23:10.265Z,7.81
2019-02-09T02:24:10.257Z,7.79
2019-02-09T02:25:10.253Z,7.84
2019-02-09T02:26:10.265Z,7.85
2019-02-09T02:27:10.435Z,7.89
2019-02-09T02:28:10.216Z,7.87
2019-02-09T02:29:10.207Z,7.90
2019-02-09T02:30:10.212Z,7.92
2019-02-09T02:31:10.185Z,7.74
2019-02-09T02:32:10.630Z,7.82
2019-02-09T02:33:10.216Z,7.69
2019-02-09T02:34:10.152Z,7.77
2019-02-09T02:35:10.142Z,7.71
2019-02-09T02:36:10.130Z,7.82
2019-02-09T02:37:10.124Z,7.79
2019-02-09T02:38:10.111Z,7.75
2019-02-09T02:39:10.426Z,7.69
2019-02-09T02:40:10.086Z,7.78
2019-02-09T02:41:10.076Z,7.77
2019-02-09T02:42:10.087Z,7.63
2019-02-09T02:43:10.057Z,7.78
2019-02-09T02:44:10.051Z,7.69
2019-02-09T02:45:10.090Z,7.77
2019-02-09T02:46:10.306Z,7.82
2019-02-09T02:47:10.012Z,7.82
2019-02-09T02:48:10.003Z,7.71
2019-02-09T02:49:09.991Z,7.79
2019-02-09T02:50:09.982Z,7.78
2019-02-09T02:51:10.008Z,7.71
2019-02-09T02:52:09.961Z,7.75
2019-02-09T02:53:10.228Z,7.75
2019-02-09T02:54:09.942Z,7.75
2019-02-09T02:55:09.929Z,7.71
2019-02-09T02:56:09.917Z,7.89
2019-02-09T02:57:09.952Z,7.89
2019-02-09T02:58:09.905Z,7.75
2019-02-09T02:59:09.889Z,7.84
2019-02-09T03:01:38.981Z,7.85
2019-02-09T03:02:38.349Z,7.75
2019-02-09T03:03:38.339Z,7.77
2019-02-09T03:04:38.325Z,7.81
2019-02-09T03:05:38.323Z,7.79
2019-02-09T03:06:38.296Z,7.71
2019-02-09T03:07:38.329Z,7.72
2019-02-09T03:08:38.302Z,7.67
2019-02-09T03:09:38.778Z,7.59
2019-02-09T03:10:38.249Z,7.60
2019-02-09T03:11:38.242Z,7.47
2019-02-09T03:12:38.243Z,7.53
2019-02-09T03:13:38.573Z,7.45
2019-02-09T03:14:38.218Z,7.49
2019-02-09T03:15:38.205Z,7.49
2019-02-09T03:16:38.810Z,7.56
2019-02-09T03:17:38.187Z,7.44
2019-02-09T03:18:38.771Z,7.44
2019-02-09T03:19:38.249Z,7.34
2019-02-09T03:20:38.188Z,7.31
2019-02-09T03:21:38.164Z,7.37
2019-02-09T03:22:38.138Z,7.34
2019-02-09T03:23:38.132Z,7.47
2019-02-09T03:24:38.174Z,7.44
2019-02-09T03:25:38.508Z,7.40
2019-02-09T03:26:38.094Z,7.27
2019-02-09T03:27:38.085Z,7.40
2019-02-09T03:28:38.074Z,7.37
2019-02-09T03:29:38.080Z,7.34
2019-02-09T03:30:47.529Z,7.22
2019-02-09T03:31:39.372Z,7.29
2019-02-09T03:32:38.029Z,7.22
2019-02-09T03:33:38.031Z,7.35
2019-02-09T03:34:38.018Z,7.32
2019-02-09T03:35:38.039Z,7.19
2019-02-09T03:36:37.979Z,7.35
2019-02-09T03:37:39.167Z,7.31
2019-02-09T03:38:38.257Z,7.37
2019-02-09T03:39:37.991Z,7.17
2019-02-09T03:40:37.961Z,7.23
2019-02-09T03:41:37.955Z,7.32
2019-02-09T03:42:37.917Z,7.37
2019-02-09T03:43:38.029Z,7.37
2019-02-09T03:44:37.902Z,7.34
2019-02-09T03:45:38.234Z,7.34
2019-02-09T03:46:37.901Z,7.44
2019-02-09T03:47:37.893Z,7.37
2019-02-09T03:48:37.860Z,7.34
2019-02-09T03:49:38.047Z,7.35
2019-02-09T03:50:37.861Z,7.31
2019-02-09T03:51:37.880Z,7.35
2019-02-09T03:52:38.152Z,7.35
2019-02-09T03:53:37.848Z,7.35
2019-02-09T03:54:37.841Z,7.29
2019-02-09T03:55:38.045Z,7.27
2019-02-09T03:56:37.790Z,7.34
2019-02-09T03:57:37.766Z,7.40
2019-02-09T03:58:38.268Z,7.35
2019-02-09T03:59:38.043Z,7.32
2019-02-09T04:00:38.263Z,7.34
2019-02-09T04:01:37.744Z,7.47
2019-02-09T04:02:37.710Z,7.34
2019-02-09T04:03:37.703Z,7.58
2019-02-09T04:04:37.740Z,7.50
2019-02-09T04:05:37.680Z,7.56
2019-02-09T04:06:37.992Z,7.52
2019-02-09T04:07:37.737Z,7.49
2019-02-09T04:08:37.667Z,7.55
2019-02-09T04:09:37.649Z,7.53
2019-02-09T04:10:37.659Z,7.56
2019-02-09T04:11:37.650Z,7.53
2019-02-09T04:12:38.298Z,7.55
2019-02-09T04:13:38.092Z,7.53
2019-02-09T04:14:37.595Z,7.53
2019-02-09T04:15:37.584Z,7.53
2019-02-09T04:16:37.589Z,7.55
2019-02-09T04:17:37.569Z,7.50
2019-02-09T04:18:37.551Z,7.56
2019-02-09T04:19:37.601Z,7.53
2019-02-09T04:20:37.815Z,7.59
2019-02-09T04:21:37.546Z,7.53
2019-02-09T04:22:37.502Z,7.45
2019-02-09T04:23:37.501Z,7.47
2019-02-09T04:24:37.500Z,7.47
2019-02-09T04:25:37.537Z,7.53
2019-02-09T04:26:37.480Z,7.47
2019-02-09T04:27:37.783Z,7.53
2019-02-09T04:28:37.455Z,7.42
2019-02-09T04:29:37.433Z,7.53
2019-02-09T04:30:37.427Z,7.56
2019-02-09T04:31:37.723Z,7.56
2019-02-09T04:32:37.400Z,7.62
2019-02-09T04:33:37.397Z,7.56
2019-02-09T04:34:37.719Z,7.56
2019-02-09T04:35:37.408Z,7.50
2019-02-09T04:36:37.369Z,7.58
2019-02-09T04:37:37.401Z,7.59
2019-02-09T04:38:37.359Z,7.59
2019-02-09T04:39:38.489Z,7.58
2019-02-09T04:40:37.385Z,7.62
2019-02-09T04:41:37.605Z,7.71
2019-02-09T04:42:37.323Z,7.55
2019-02-09T04:43:37.428Z,7.53
2019-02-09T04:44:37.307Z,7.49
2019-02-09T04:45:37.299Z,7.56
2019-02-09T04:46:37.304Z,7.52
2019-02-09T04:47:37.264Z,7.53
2019-02-09T04:48:37.598Z,7.56
2019-02-09T04:49:37.333Z,7.59
2019-02-09T04:50:37.234Z,7.55
2019-02-09T04:51:37.233Z,7.55
2019-02-09T04:52:37.197Z,7.55
2019-02-09T04:53:37.238Z,7.56
2019-02-09T04:54:37.199Z,7.50
2019-02-09T04:55:37.604Z,7.59
2019-02-09T04:56:37.174Z,7.52
2019-02-09T04:57:37.169Z,7.53
2019-02-09T04:58:37.154Z,7.56
2019-02-09T04:59:37.159Z,7.52
2019-02-09T05:00:37.138Z,7.47
2019-02-09T05:01:38.524Z,7.53
2019-02-09T05:02:37.103Z,7.50
2019-02-09T05:03:37.092Z,7.58
2019-02-09T05:04:37.079Z,7.52
2019-02-09T05:05:37.092Z,7.45
2019-02-09T05:06:37.060Z,7.53
2019-02-09T05:07:37.152Z,7.53
2019-02-09T05:08:37.753Z,7.53
2019-02-09T05:09:37.040Z,7.50
2019-02-09T05:10:37.013Z,7.50
2019-02-09T05:11:37.002Z,7.50
2019-02-09T05:12:36.998Z,7.55
2019-02-09T05:13:37.324Z,7.55
2019-02-09T05:14:36.979Z,7.56
2019-02-09T05:15:36.985Z,7.60
2019-02-09T05:16:36.970Z,7.63
2019-02-09T05:17:36.961Z,7.63
2019-02-09T05:18:36.944Z,7.52
2019-02-09T05:19:36.967Z,7.59
2019-02-09T05:20:37.764Z,7.55
2019-02-09T05:21:36.923Z,7.63
2019-02-09T05:22:36.897Z,7.69
2019-02-09T05:23:37.768Z,7.74
2019-02-09T05:24:36.867Z,7.75
2019-02-09T05:25:38.042Z,7.67
2019-02-09T05:26:36.873Z,7.82
2019-02-09T05:27:36.849Z,7.72
2019-02-09T05:28:37.728Z,7.77
2019-02-09T05:29:36.826Z,7.90
2019-02-09T05:30:36.819Z,7.75
2019-02-09T05:31:37.706Z,7.69
2019-02-09T05:32:36.818Z,7.84
2019-02-09T05:33:36.785Z,7.78
2019-02-09T05:34:36.812Z,7.82
2019-02-09T05:35:36.755Z,7.79
2019-02-09T05:36:36.760Z,7.89
2019-02-09T05:37:36.798Z,7.87
2019-02-09T05:38:38.106Z,7.82
2019-02-09T05:39:36.730Z,7.81
2019-02-09T05:40:36.715Z,7.85
2019-02-09T05:41:36.703Z,7.84
2019-02-09T05:42:36.738Z,7.85
2019-02-09T05:43:36.907Z,7.97
2019-02-09T05:44:36.660Z,7.84
2019-02-09T05:45:37.129Z,7.94
2019-02-09T05:46:36.661Z,7.94
2019-02-09T05:47:36.677Z,7.94
2019-02-09T05:48:36.629Z,7.81
2019-02-09T05:49:36.676Z,7.92
2019-02-09T05:50:36.627Z,7.85
2019-02-09T05:51:36.607Z,7.81
2019-02-09T05:52:36.959Z,7.78
2019-02-09T05:53:36.597Z,7.84
2019-02-09T05:54:36.558Z,7.92
2019-02-09T05:55:36.657Z,7.79
2019-02-09T05:56:36.538Z,7.84
2019-02-09T05:57:36.538Z,7.84
2019-02-09T05:58:36.533Z,7.84
2019-02-09T05:59:36.993Z,7.78
2019-02-09T06:00:36.567Z,7.82
2019-02-09T06:01:36.723Z,7.79
2019-02-09T06:02:36.488Z,7.90
2019-02-09T06:03:37.247Z,7.82
2019-02-09T06:04:36.485Z,7.84
2019-02-09T06:05:36.451Z,7.84
2019-02-09T06:06:36.836Z,7.82
2019-02-09T06:07:36.476Z,7.94
2019-02-09T06:08:36.429Z,8.00
2019-02-09T06:09:36.419Z,7.96
2019-02-09T06:10:36.520Z,7.97
2019-02-09T06:11:36.465Z,7.93
2019-02-09T06:12:36.412Z,7.92
2019-02-09T06:13:36.426Z,8.07
2019-02-09T06:14:36.352Z,8.04
2019-02-09T06:15:36.365Z,8.04
2019-02-09T06:16:36.370Z,8.22
2019-02-09T06:17:36.386Z,8.07
2019-02-09T06:18:36.418Z,8.11
2019-02-09T06:19:36.748Z,8.17
2019-02-09T06:20:36.295Z,8.17
2019-02-09T06:21:36.289Z,8.12
2019-02-09T06:22:36.282Z,8.12
2019-02-09T06:23:36.272Z,8.11
2019-02-09T06:24:36.399Z,8.18
2019-02-09T06:25:36.293Z,8.03
2019-02-09T06:26:36.734Z,8.03
2019-02-09T06:27:36.233Z,8.12
2019-02-09T06:28:36.206Z,8.04
2019-02-09T06:29:36.197Z,8.15
2019-02-09T06:30:36.195Z,8.15
2019-02-09T06:31:40.816Z,8.14
2019-02-09T06:32:37.163Z,8.17
2019-02-09T06:33:36.598Z,8.15
2019-02-09T06:34:36.145Z,8.14
2019-02-09T06:35:36.155Z,8.15
2019-02-09T06:36:36.123Z,8.04
2019-02-09T06:37:36.178Z,8.14
2019-02-09T06:38:36.762Z,8.14
2019-02-09T06:39:36.435Z,8.12
2019-02-09T06:40:36.086Z,8.15
2019-02-09T06:41:36.088Z,8.15
2019-02-09T06:42:36.076Z,8.20
2019-02-09T06:43:36.124Z,8.20
2019-02-09T06:44:36.123Z,8.17
2019-02-09T06:45:36.054Z,8.18
2019-02-09T06:46:36.052Z,8.12
2019-02-09T06:47:36.031Z,8.11
2019-02-09T06:48:36.755Z,8.08
2019-02-09T06:49:36.060Z,8.04
2019-02-09T06:50:35.994Z,8.17
2019-02-09T06:51:36.287Z,8.04
2019-02-09T06:52:35.967Z,8.07
2019-02-09T06:53:35.963Z,8.04
2019-02-09T06:54:35.962Z,8.02
2019-02-09T06:55:36.003Z,8.07
2019-02-09T06:56:35.924Z,8.00
2019-02-09T06:57:35.921Z,7.99
2019-02-09T06:58:35.938Z,8.10
2019-02-09T06:59:35.908Z,7.96
2019-02-09T07:00:36.709Z,8.02
2019-02-09T07:01:35.957Z,7.94
2019-02-09T07:02:35.884Z,7.96
2019-02-09T07:03:36.167Z,8.03
2019-02-09T07:04:35.854Z,8.02
2019-02-09T07:05:35.861Z,8.08
2019-02-09T07:06:35.823Z,8.08
2019-02-09T07:07:35.868Z,8.03
2019-02-09T07:08:35.825Z,8.04
2019-02-09T07:09:35.799Z,7.97
2019-02-09T07:10:35.795Z,7.94
2019-02-09T07:11:35.786Z,7.97
2019-02-09T07:12:35.757Z,7.92
2019-02-09T07:13:35.848Z,7.94
2019-02-09T07:14:35.757Z,7.94
2019-02-09T07:15:35.765Z,7.94
2019-02-09T07:16:36.238Z,7.94
2019-02-09T07:17:35.724Z,7.96
2019-02-09T07:18:35.689Z,8.02
2019-02-09T07:19:35.743Z,7.96
2019-02-09T07:20:35.698Z,7.97
2019-02-09T07:21:35.689Z,8.07
2019-02-09T07:22:35.658Z,7.93
2019-02-09T07:23:36.093Z,7.96
2019-02-09T07:24:35.652Z,7.99
2019-02-09T07:25:35.673Z,7.96
2019-02-09T07:26:35.617Z,8.08
2019-02-09T07:27:35.612Z,8.04
2019-02-09T07:28:35.608Z,8.03
2019-02-09T07:29:35.609Z,8.12
2019-02-09T07:30:35.858Z,8.04
2019-02-09T07:31:35.631Z,8.02
2019-02-09T07:32:35.543Z,8.10
2019-02-09T07:33:35.562Z,8.11
2019-02-09T07:34:35.563Z,8.14
2019-02-09T07:35:35.536Z,8.21
2019-02-09T07:36:36.241Z,8.22
2019-02-09T07:37:36.005Z,8.22
2019-02-09T07:38:35.489Z,8.28
2019-02-09T07:39:36.235Z,8.33
2019-02-09T07:40:36.249Z,8.26
2019-02-09T07:41:35.748Z,8.32
2019-02-09T07:42:35.497Z,8.30
2019-02-09T07:43:36.690Z,8.25
2019-02-09T07:44:35.872Z,8.25
2019-02-09T07:45:35.452Z,8.25
2019-02-09T07:46:35.425Z,8.30
2019-02-09T07:47:35.384Z,8.32
2019-02-09T07:48:36.242Z,8.28
2019-02-09T07:49:35.441Z,8.30
2019-02-09T07:50:35.366Z,8.40
2019-02-09T07:51:36.667Z,8.37
2019-02-09T07:52:35.354Z,8.48
2019-02-09T07:53:35.347Z,8.51
2019-02-09T07:54:35.314Z,8.50
2019-02-09T07:55:35.519Z,8.48
2019-02-09T07:56:35.303Z,8.60
2019-02-09T07:57:35.333Z,8.62
2019-02-09T07:58:35.688Z,8.69
2019-02-09T07:59:35.258Z,8.76
2019-02-09T08:00:35.278Z,8.71
2019-02-09T08:01:35.307Z,8.62
2019-02-09T08:02:35.230Z,8.72
2019-02-09T08:03:35.251Z,8.81
2019-02-09T08:04:35.224Z,8.78
2019-02-09T08:05:35.554Z,8.90
2019-02-09T08:06:35.205Z,8.91
2019-02-09T08:07:35.389Z,8.84
2019-02-09T08:08:35.174Z,8.75
2019-02-09T08:09:35.160Z,8.81
2019-02-09T08:10:35.179Z,8.75
2019-02-09T08:11:35.155Z,8.72
2019-02-09T08:12:36.202Z,8.72
2019-02-09T08:13:35.165Z,8.72
2019-02-09T08:14:35.120Z,8.65
2019-02-09T08:15:35.119Z,8.62
2019-02-09T08:16:35.104Z,8.73
2019-02-09T08:17:35.073Z,8.55
2019-02-09T08:18:35.066Z,8.58
2019-02-09T08:19:35.469Z,8.54
2019-02-09T08:20:35.074Z,8.40
2019-02-09T08:21:35.054Z,8.44
2019-02-09T08:22:35.116Z,8.33
2019-02-09T08:23:35.062Z,8.33
2019-02-09T08:24:34.995Z,8.35
2019-02-09T08:25:35.065Z,8.30
2019-02-09T08:26:35.003Z,8.28
2019-02-09T08:27:34.978Z,8.25
2019-02-09T08:28:35.747Z,8.26
2019-02-09T08:29:34.989Z,8.20
2019-02-09T08:30:34.950Z,8.35
2019-02-09T08:31:35.349Z,8.39
2019-02-09T08:32:34.950Z,8.40
2019-02-09T08:33:34.953Z,8.48
2019-02-09T08:34:35.729Z,8.62
2019-02-09T08:35:34.894Z,8.55
2019-02-09T08:36:34.925Z,8.63
2019-02-09T08:37:34.899Z,8.63
2019-02-09T08:38:34.905Z,8.65
2019-02-09T08:39:34.869Z,8.65
2019-02-09T08:40:34.905Z,8.71
2019-02-09T08:41:34.886Z,8.63
2019-02-09T08:42:34.807Z,8.51
2019-02-09T08:43:35.209Z,8.55
2019-02-09T08:44:35.812Z,8.65
2019-02-09T08:45:34.972Z,8.65
2019-02-09T08:46:34.769Z,8.72
2019-02-09T08:47:34.815Z,8.66
2019-02-09T08:48:34.759Z,8.65
2019-02-09T08:49:34.804Z,8.54
2019-02-09T08:50:34.744Z,8.68
2019-02-09T08:51:34.805Z,8.69
2019-02-09T08:52:34.698Z,8.71
2019-02-09T08:53:34.755Z,8.72
2019-02-09T08:54:34.693Z,8.78
2019-02-09T08:55:34.719Z,8.91
2019-02-09T08:56:36.115Z,8.91
2019-02-09T08:57:34.682Z,8.93
2019-02-09T08:58:34.707Z,9.01
2019-02-09T08:59:34.623Z,9.10
2019-02-09T09:00:35.260Z,9.15
2019-02-09T09:01:34.716Z,9.02
2019-02-09T09:02:34.667Z,9.15
2019-02-09T09:03:34.801Z,9.21
2019-02-09T09:04:34.678Z,9.16
2019-02-09T09:05:34.580Z,9.24
2019-02-09T09:06:35.251Z,9.25
2019-02-09T09:07:34.846Z,9.23
2019-02-09T09:08:34.682Z,9.24
2019-02-09T09:09:34.579Z,9.15
2019-02-09T09:10:34.635Z,9.12
2019-02-09T09:11:34.579Z,8.99
2019-02-09T09:12:34.515Z,9.01
2019-02-09T09:13:34.528Z,8.91
2019-02-09T09:14:34.512Z,8.99
2019-02-09T09:15:34.511Z,8.91
2019-02-09T09:16:34.447Z,8.96
2019-02-09T09:17:34.490Z,8.90
2019-02-09T09:18:34.439Z,8.94
2019-02-09T09:19:34.521Z,8.88
2019-02-09T09:20:34.545Z,8.87
2019-02-09T09:21:34.479Z,8.86
2019-02-09T09:22:34.408Z,8.94
2019-02-09T09:23:34.417Z,8.88
2019-02-09T09:24:34.469Z,8.75
2019-02-09T09:25:34.450Z,8.76
2019-02-09T09:26:34.357Z,8.76
2019-02-09T09:27:34.382Z,8.83
2019-02-09T09:28:34.376Z,8.78
2019-02-09T09:29:34.312Z,8.79
2019-02-09T09:30:35.251Z,8.84
2019-02-09T09:31:34.405Z,8.90
2019-02-09T09:32:34.279Z,8.88
2019-02-09T09:33:34.849Z,8.94
2019-02-09T09:34:34.264Z,8.93
2019-02-09T09:35:34.270Z,9.04
2019-02-09T09:36:34.365Z,9.16
2019-02-09T09:37:34.410Z,9.05
2019-02-09T09:38:34.379Z,9.13
2019-02-09T09:39:34.948Z,9.23
2019-02-09T09:40:34.201Z,9.23
2019-02-09T09:41:34.190Z,9.16
2019-02-09T09:42:34.225Z,9.25
2019-02-09T09:43:34.271Z,9.30
2019-02-09T09:44:34.205Z,9.21
2019-02-09T09:45:34.225Z,9.21
2019-02-09T09:46:34.559Z,9.20
2019-02-09T09:47:34.130Z,9.30
2019-02-09T09:48:34.158Z,9.20
2019-02-09T09:49:34.277Z,9.16
2019-02-09T09:50:34.103Z,9.16
2019-02-09T09:51:34.095Z,9.21
2019-02-09T09:52:34.063Z,9.27
2019-02-09T09:53:34.433Z,9.27
2019-02-09T09:54:34.063Z,9.39
2019-02-09T09:55:34.189Z,9.24
2019-02-09T09:56:34.744Z,9.32
2019-02-09T09:57:34.022Z,9.24
2019-02-09T09:58:34.005Z,9.10
2019-02-09T09:59:34.061Z,8.94
2019-02-09T10:00:34.092Z,8.96
2019-02-09T10:01:34.033Z,9.05
2019-02-09T10:02:36.552Z,9.06
2019-02-09T10:03:33.958Z,8.93
2019-02-09T10:04:33.969Z,9.05
2019-02-09T10:05:33.959Z,9.16
2019-02-09T10:06:33.917Z,9.23
2019-02-09T10:07:33.943Z,9.40
2019-02-09T10:08:33.906Z,9.48
2019-02-09T10:09:33.889Z,9.39
2019-02-09T10:10:33.867Z,9.43
2019-02-09T10:11:34.700Z,9.39
2019-02-09T10:12:33.894Z,9.25
2019-02-09T10:13:33.943Z,9.39
2019-02-09T10:14:34.727Z,9.45
2019-02-09T10:15:33.847Z,9.49
2019-02-09T10:16:33.822Z,9.48
2019-02-09T10:17:33.803Z,9.49
2019-02-09T10:18:33.835Z,9.48
2019-02-09T10:19:35.228Z,9.48
2019-02-09T10:20:33.781Z,9.56
2019-02-09T10:21:33.802Z,9.46
2019-02-09T10:22:33.799Z,9.49
2019-02-09T10:23:33.859Z,9.58
2019-02-09T10:24:33.814Z,9.73
2019-02-09T10:25:41.330Z,9.58
2019-02-09T10:26:37.305Z,9.57
2019-02-09T10:27:33.736Z,9.46
2019-02-09T10:28:35.326Z,9.45
2019-02-09T10:29:33.681Z,9.45
2019-02-09T10:30:33.795Z,9.56
2019-02-09T10:31:33.730Z,9.71
2019-02-09T10:32:33.649Z,9.79
2019-02-09T10:33:33.668Z,9.73
2019-02-09T10:34:33.682Z,9.63
2019-02-09T10:35:33.677Z,9.63
2019-02-09T10:36:33.638Z,9.63
2019-02-09T10:37:33.643Z,9.49
2019-02-09T10:38:33.606Z,9.58
2019-02-09T10:39:33.595Z,9.57
2019-02-09T10:40:33.574Z,9.58
2019-02-09T10:41:33.894Z,9.53
2019-02-09T10:42:33.559Z,9.45
2019-02-09T10:43:33.668Z,9.50
2019-02-09T10:44:33.518Z,9.56
2019-02-09T10:45:33.736Z,9.49
2019-02-09T10:46:44.281Z,9.53
2019-02-09T10:47:33.498Z,9.50
2019-02-09T10:48:33.946Z,9.50
2019-02-09T10:49:33.579Z,9.45
2019-02-09T10:50:33.515Z,9.40
2019-02-09T10:51:33.437Z,9.40
2019-02-09T10:52:33.545Z,9.45
2019-02-09T10:53:33.440Z,9.40
2019-02-09T10:54:33.449Z,9.42
2019-02-09T10:55:33.428Z,9.49
2019-02-09T10:56:33.452Z,9.60
2019-02-09T10:57:33.412Z,9.57
2019-02-09T10:58:33.424Z,9.58
2019-02-09T10:59:33.363Z,9.64
2019-02-09T11:00:33.381Z,9.68
2019-02-09T11:01:36.788Z,9.88
2019-02-09T11:02:33.354Z,9.85
2019-02-09T11:03:33.338Z,10.01
2019-02-09T11:04:33.342Z,10.07
2019-02-09T11:05:33.685Z,10.25
2019-02-09T11:06:33.374Z,10.37
2019-02-09T11:07:35.818Z,10.22
2019-02-09T11:08:33.340Z,10.28
2019-02-09T11:09:33.567Z,10.24
2019-02-09T11:10:33.448Z,10.26
2019-02-09T11:11:34.454Z,10.30
2019-02-09T11:12:33.324Z,10.32
2019-02-09T11:13:33.291Z,10.40
2019-02-09T11:14:33.882Z,10.47
2019-02-09T11:15:33.406Z,10.44
2019-02-09T11:16:34.242Z,10.44
2019-02-09T11:17:33.199Z,10.43
2019-02-09T11:18:33.235Z,10.40
2019-02-09T11:19:33.310Z,10.24
2019-02-09T11:20:33.273Z,10.24
2019-02-09T11:21:33.204Z,10.33
2019-02-09T11:22:33.150Z,10.33
2019-02-09T11:23:33.314Z,10.36
2019-02-09T11:24:33.164Z,10.34
2019-02-09T11:25:33.736Z,10.30
2019-02-09T11:26:33.734Z,10.24
2019-02-09T11:27:33.139Z,10.37
2019-02-09T11:28:33.748Z,10.22
2019-02-09T11:29:33.092Z,10.37
2019-02-09T11:30:33.071Z,10.34
2019-02-09T11:31:33.098Z,10.39
2019-02-09T11:32:33.740Z,10.37
2019-02-09T11:33:33.006Z,10.33
2019-02-09T11:34:32.991Z,10.19
2019-02-09T11:35:33.029Z,10.14
2019-02-09T11:36:32.991Z,10.04
2019-02-09T11:37:33.787Z,10.06
2019-02-09T11:38:33.736Z,10.07
2019-02-09T11:39:32.954Z,9.97
2019-02-09T11:40:32.991Z,9.94
2019-02-09T11:41:36.075Z,9.94
2019-02-09T11:42:33.803Z,9.96
2019-02-09T11:43:34.801Z,9.96
2019-02-09T11:44:40.878Z,10.06
2019-02-09T11:45:34.870Z,10.09
2019-02-09T11:46:34.835Z,10.09
2019-02-09T11:47:35.053Z,9.97
2019-02-09T11:48:34.698Z,10.07
2019-02-09T11:49:34.967Z,10.12
2019-02-09T11:50:34.747Z,10.09
2019-02-09T11:51:32.862Z,10.14
2019-02-09T11:52:32.828Z,10.18
2019-02-09T11:53:32.826Z,10.22
2019-02-09T11:54:32.833Z,10.30
2019-02-09T11:55:33.873Z,10.24
2019-02-09T11:56:36.337Z,10.39
2019-02-09T11:57:32.748Z,10.47
2019-02-09T11:58:33.737Z,10.99
2019-02-09T11:59:32.746Z,10.60
2019-02-09T12:00:32.790Z,10.44
2019-02-09T12:01:32.805Z,10.40
2019-02-09T12:02:32.700Z,10.43
2019-02-09T12:03:32.724Z,10.43
2019-02-09T12:04:32.756Z,10.42
2019-02-09T12:05:33.264Z,10.59
2019-02-09T12:06:32.795Z,10.80
2019-02-09T12:07:32.728Z,11.21
2019-02-09T12:08:32.645Z,11.03
2019-02-09T12:09:32.678Z,10.81
2019-02-09T12:10:32.657Z,10.68
2019-02-09T12:11:32.641Z,10.63
2019-02-09T12:12:32.620Z,10.83
2019-02-09T12:13:34.726Z,13.52
2019-02-09T12:14:32.580Z,14.25
2019-02-09T12:15:32.580Z,15.42
2019-02-09T12:16:32.564Z,15.84
2019-02-09T12:17:32.667Z,13.17
2019-02-09T12:18:32.627Z,11.86
2019-02-09T12:19:32.599Z,11.29
2019-02-09T12:20:33.111Z,10.98
2019-02-09T12:21:32.516Z,11.06
2019-02-09T12:22:32.501Z,10.91
2019-02-09T12:23:32.525Z,11.14
2019-02-09T12:24:32.477Z,11.11
2019-02-09T12:25:32.500Z,11.11
2019-02-09T12:26:35.286Z,10.96
2019-02-09T12:27:32.537Z,10.65
2019-02-09T12:28:35.221Z,10.77
2019-02-09T12:29:32.439Z,11.94
2019-02-09T12:30:32.400Z,14.42
2019-02-09T12:31:32.558Z,15.41
2019-02-09T12:32:32.422Z,15.31
2019-02-09T12:33:32.415Z,15.96
2019-02-09T12:34:32.386Z,15.26
2019-02-09T12:35:32.389Z,14.64
2019-02-09T12:36:32.391Z,12.96
2019-02-09T12:37:33.332Z,11.93
2019-02-09T12:38:32.340Z,11.53
2019-02-09T12:39:32.324Z,12.81
2019-02-09T12:40:32.339Z,12.77
2019-02-09T12:41:32.313Z,11.94
2019-02-09T12:42:32.284Z,11.34
2019-02-09T12:43:32.398Z,10.98
2019-02-09T12:44:32.274Z,10.83
2019-02-09T12:45:32.300Z,10.63
2019-02-09T12:46:32.241Z,10.55
2019-02-09T12:47:33.232Z,10.52
2019-02-09T12:48:32.400Z,10.52
2019-02-09T12:49:33.103Z,10.55
2019-02-09T12:50:32.225Z,10.39
2019-02-09T12:51:32.214Z,10.46
2019-02-09T12:52:32.720Z,10.43
2019-02-09T12:53:32.213Z,10.34
2019-02-09T12:54:32.161Z,10.24
2019-02-09T12:55:32.783Z,10.30
2019-02-09T12:56:32.141Z,10.15
2019-02-09T12:57:32.737Z,10.14
2019-02-09T12:58:32.126Z,10.14
2019-02-09T12:59:32.094Z,10.18
2019-02-09T13:00:32.192Z,10.14
2019-02-09T13:01:32.143Z,10.15
2019-02-09T13:02:32.551Z,10.17
2019-02-09T13:03:32.705Z,10.12
2019-02-09T13:04:32.065Z,10.21
2019-02-09T13:05:32.787Z,10.36
2019-02-09T13:06:32.085Z,10.44
2019-02-09T13:07:32.239Z,10.47
2019-02-09T13:08:32.009Z,10.59
2019-02-09T13:09:32.715Z,10.62
2019-02-09T13:10:32.746Z,10.63
2019-02-09T13:11:32.732Z,10.55
2019-02-09T13:12:32.724Z,10.60
2019-02-09T13:13:33.719Z,10.63
2019-02-09T13:14:32.723Z,10.78
2019-02-09T13:15:31.944Z,10.80